Ana Sayfa
METAR-TAF:

METAR-TAF

Havaalanları :

Mason Jewett Field

Mason, Michigan, Amerika Birleşik Devletleri

Enlem: 42-33-57N, Boylam: 084-25-24W, yükseklik: 280 m

Güncel hava durumu gözlemi

Rapor saat 14:35 UTC de 24 dakika önce yapıldı.
Rüzgar doğudan 3 kt
Sıcaklık -2°C
Nem 86%
Basınç 1023 hPa
Görüş mesafesi: 16.1 km
2800 ft yükseklikte çok bulutlu

METAR: KTEW 291435Z AUTO 09003KT 10SM OVC028 M02/M04 A3021 RMK AO2 T10161044

Saat: 09:59 (14:59 UTC)


TAF: eksik

4.000'den fazla havaalanı için hava durumu gözlemleri ve tahminleri (METAR ve TAF raporları).

Kullanılabilir istasyonlar harita üzerinde sarı ve kırmızı noktalarla gösterilir.

İstasyonun adını görmek için fareyi noktanın üzerinde gezdirin.

Sonrasında hava gözlem ve tahminlerini görmek için tıklayın.

Haritayı değiştirmek için: yaklaştırmak için siyah artı işaretli yeşil düğmeye ve uzaklaştırmak için de eksi işaretli düğmeye hızla tıklayın; bitişik haritalar için yeşil okları kullanın.


METAR-TAF: